Grand Narrows, Canada
Current Conditions -  °F | °C
As of 12:39 AM on Sunday 26 Oct 2014 (Local Time) from CYPD Reporting Station
Overcast Overcast  
Wind Chill: 45°   Ceiling: 600
Heat Index: 48°   Visibility: 9mi
Dew Point: 46°   Wind: 8mph
Humidity: 93%   Direction: 250°WSW
Pressure: 29.47"   Gusts: NA
Location:  45.95°N, 60.78°W
Report Text: CYPD 260339Z AUTO 25007KT 9SM BKN006 OVC012 09/08 A2947 RMK SLP981
Loading
Personal Weather Stations






























Interactive Weather Map
Tropical Storm Tracking
New forecast layout! Learn more

10-Day Weather Forecast

Advertisements
Track Severe Weather on mobile